Time;durP1;ratioP1;P1;durP2;ratioP2;P2;SDS_P1;SDS_P2;PMS_P1;PMS_P2;Temp;Humidity;BMP_temperature;BMP_pressure;BME280_temperature;BME280_humidity;BME280_pressure;Samples;Min_cycle;Max_cycle;Signal;HPM_P1;HPM_P2
2023/04/07 00:01:20;;;;;;;1.30;1.20;;;18.80;41.40;;;;;;5017911;28;20242;-64
2023/04/07 00:03:46;;;;;;;0.93;0.93;;;18.80;41.40;;;;;;5017023;28;20219;-64
2023/04/07 00:06:12;;;;;;;1.10;0.90;;;18.80;41.40;;;;;;5020144;28;20942;-64
2023/04/07 00:08:38;;;;;;;1.00;1.00;;;18.80;41.40;;;;;;5016938;28;20219;-62
2023/04/07 00:11:03;;;;;;;1.20;1.10;;;18.80;41.40;;;;;;5017575;28;20226;-62
2023/04/07 00:13:29;;;;;;;1.83;1.20;;;18.80;41.40;;;;;;5018658;28;20473;-63
2023/04/07 00:15:54;;;;;;;0.90;0.90;;;18.80;41.40;;;;;;5024251;28;20575;-65
2023/04/07 00:18:20;;;;;;;1.10;1.00;;;18.80;41.40;;;;;;5013789;28;20329;-62
2023/04/07 00:20:46;;;;;;;1.20;1.10;;;18.80;41.40;;;;;;5012002;28;20226;-68
2023/04/07 00:23:11;;;;;;;1.07;1.07;;;18.80;41.50;;;;;;5019285;28;20222;-63
2023/04/07 00:25:37;;;;;;;1.10;1.00;;;18.80;41.50;;;;;;5020720;28;20278;-64
2023/04/07 00:28:02;;;;;;;1.00;0.90;;;18.80;41.40;;;;;;5016338;28;20215;-63
2023/04/07 00:30:28;;;;;;;1.03;0.93;;;18.80;41.40;;;;;;5021719;28;20249;-64
2023/04/07 00:32:53;;;;;;;1.53;1.20;;;18.70;41.30;;;;;;5018062;28;20311;-62
2023/04/07 00:35:19;;;;;;;1.20;1.10;;;18.80;41.50;;;;;;5018338;28;20229;-65
2023/04/07 00:37:44;;;;;;;1.10;1.00;;;18.80;41.50;;;;;;5021233;28;20218;-63
2023/04/07 00:40:10;;;;;;;1.30;1.20;;;18.70;41.50;;;;;;5020233;28;20218;-62
2023/04/07 00:42:36;;;;;;;1.67;1.10;;;18.70;41.40;;;;;;5023102;28;20242;-63
2023/04/07 00:45:01;;;;;;;1.23;1.13;;;18.80;41.50;;;;;;5023086;28;20930;-65
2023/04/07 00:47:27;;;;;;;1.00;1.00;;;18.70;41.40;;;;;;5015484;28;20223;-64
2023/04/07 00:49:52;;;;;;;0.97;0.97;;;18.70;41.50;;;;;;5018747;28;20222;-65
2023/04/07 00:52:26;;;;;;;1.30;1.20;;;18.70;41.50;;;;;;5014816;28;20245;-64
2023/04/07 00:54:55;;;;;;;1.33;1.00;;;18.70;41.50;;;;;;5015766;28;20433;-62
2023/04/07 00:57:21;;;;;;;1.30;1.20;;;18.70;41.40;;;;;;5016213;28;21174;-62
2023/04/07 00:59:49;;;;;;;1.37;1.27;;;18.70;41.50;;;;;;5013876;28;20462;-65
2023/04/07 01:02:31;;;;;;;1.53;1.30;;;18.70;41.40;;;;;;5020510;28;20459;-64
2023/04/07 01:05:22;;;;;;;1.03;1.00;;;18.70;41.40;;;;;;5020225;28;20426;-63
2023/04/07 01:07:56;;;;;;;1.40;1.07;;;18.70;41.50;;;;;;5016983;28;20898;-63
2023/04/07 01:10:48;;;;;;;1.20;1.10;;;18.70;41.50;;;;;;5019283;28;20522;-64
2023/04/07 01:13:23;;;;;;;1.30;1.20;;;18.70;41.50;;;;;;5020367;28;20456;-64
2023/04/07 01:15:51;;;;;;;1.30;1.20;;;18.70;41.50;;;;;;5019701;28;20525;-64
2023/04/07 01:18:26;;;;;;;1.20;1.10;;;18.70;41.50;;;;;;5018258;28;20455;-63
2023/04/07 01:20:57;;;;;;;1.40;1.20;;;18.70;41.50;;;;;;5016735;28;20418;-62
2023/04/07 01:23:52;;;;;;;1.37;1.27;;;18.70;41.50;;;;;;5018501;28;20486;-64
2023/04/07 01:26:34;;;;;;;1.37;1.27;;;18.70;41.50;;;;;;5007658;28;20564;-65
2023/04/07 01:29:13;;;;;;;1.93;1.50;;;18.70;41.50;;;;;;5020495;28;20435;-64
2023/04/07 01:31:40;;;;;;;2.03;1.43;;;18.70;41.50;;;;;;5019189;28;20447;-65
2023/04/07 01:34:09;;;;;;;1.20;1.10;;;18.70;41.50;;;;;;5010500;28;20444;-66
2023/04/07 01:36:35;;;;;;;1.37;1.27;;;18.70;41.50;;;;;;5016780;28;20494;-65
2023/04/07 01:39:01;;;;;;;1.73;1.20;;;18.70;41.50;;;;;;5024380;28;20485;-65
2023/04/07 01:41:28;;;;;;;1.57;1.47;;;18.70;41.60;;;;;;5010694;28;20234;-64
2023/04/07 01:43:55;;;;;;;1.20;1.10;;;18.70;41.50;;;;;;5034872;28;20532;-63
2023/04/07 01:46:20;;;;;;;1.30;1.20;;;18.70;41.60;;;;;;5024920;28;20973;-68
2023/04/07 01:48:47;;;;;;;1.40;1.30;;;18.70;41.50;;;;;;5021806;28;20465;-63
2023/04/07 01:51:16;;;;;;;1.20;1.10;;;18.70;41.60;;;;;;5017180;28;20295;-64
2023/04/07 01:53:42;;;;;;;1.70;1.60;;;18.70;41.60;;;;;;5020928;28;20434;-62
2023/04/07 01:56:08;;;;;;;1.40;1.30;;;18.70;41.60;;;;;;5017636;28;20434;-62
2023/04/07 01:58:34;;;;;;;1.30;1.20;;;18.70;41.60;;;;;;5016119;28;21284;-65
2023/04/07 02:00:59;;;;;;;1.40;1.30;;;18.70;41.60;;;;;;5014564;28;20879;-64
2023/04/07 02:03:43;;;;;;;1.40;1.30;;;18.70;41.60;;;;;;5014579;28;20227;-65
2023/04/07 02:06:12;;;;;;;1.40;1.30;;;18.70;41.70;;;;;;5020564;28;20278;-63
2023/04/07 02:08:44;;;;;;;1.20;1.10;;;18.70;41.70;;;;;;5018217;28;20543;-63
2023/04/07 02:11:11;;;;;;;1.43;1.33;;;18.70;41.60;;;;;;5016051;28;20753;-67
2023/04/07 02:13:38;;;;;;;1.50;1.40;;;18.70;41.60;;;;;;5017185;28;20983;-62
2023/04/07 02:16:05;;;;;;;1.20;1.10;;;18.70;41.60;;;;;;5019694;28;20938;-65
2023/04/07 02:18:32;;;;;;;1.30;1.20;;;18.70;41.60;;;;;;5020348;28;20517;-63
2023/04/07 02:21:00;;;;;;;1.20;1.10;;;18.70;41.60;;;;;;5021435;28;20429;-66
2023/04/07 02:23:26;;;;;;;1.23;1.13;;;18.70;41.60;;;;;;5019023;28;20424;-63
2023/04/07 02:25:55;;;;;;;1.40;1.30;;;18.70;41.70;;;;;;5019704;28;20496;-65
2023/04/07 02:28:21;;;;;;;1.30;1.20;;;18.70;41.60;;;;;;5020470;28;20221;-66
2023/04/07 02:30:46;;;;;;;1.50;1.40;;;18.70;41.70;;;;;;5019218;28;20412;-62
2023/04/07 02:33:12;;;;;;;1.40;1.30;;;18.70;41.70;;;;;;5019827;28;20211;-62
2023/04/07 02:35:37;;;;;;;1.40;1.30;;;18.70;41.70;;;;;;5021896;28;20210;-62
2023/04/07 02:38:03;;;;;;;1.33;1.23;;;18.70;41.70;;;;;;5021546;28;20250;-64
2023/04/07 02:40:28;;;;;;;1.57;1.47;;;18.70;41.60;;;;;;5019214;28;20665;-64
2023/04/07 02:42:54;;;;;;;1.40;1.30;;;18.70;41.70;;;;;;5017811;28;20778;-64
2023/04/07 02:45:20;;;;;;;1.30;1.20;;;18.70;41.70;;;;;;5024186;28;20222;-64
2023/04/07 02:47:45;;;;;;;1.57;1.47;;;18.70;42.50;;;;;;5017506;28;20227;-64
2023/04/07 02:50:11;;;;;;;1.60;1.50;;;18.70;41.70;;;;;;5015409;28;20223;-63
2023/04/07 02:52:36;;;;;;;1.30;1.20;;;18.60;41.60;;;;;;5017758;28;20675;-64
2023/04/07 02:55:02;;;;;;;1.30;1.20;;;18.70;41.70;;;;;;5015561;28;20340;-66
2023/04/07 02:57:28;;;;;;;2.13;1.13;;;18.70;41.70;;;;;;5015891;28;20230;-62
2023/04/07 02:59:55;;;;;;;1.50;1.27;;;18.70;41.70;;;;;;5016890;28;20249;-63
2023/04/07 03:02:21;;;;;;;1.93;1.77;;;18.70;41.70;;;;;;5017173;28;20336;-66
2023/04/07 03:04:46;;;;;;;2.13;1.53;;;18.70;41.70;;;;;;5016613;28;21014;-63
2023/04/07 03:07:12;;;;;;;1.53;1.43;;;18.70;41.70;;;;;;5016664;28;20226;-62
2023/04/07 03:09:37;;;;;;;1.50;1.40;;;18.70;41.70;;;;;;5021191;28;23927;-63
2023/04/07 03:12:03;;;;;;;1.33;1.23;;;18.70;41.70;;;;;;5019565;28;20282;-63
2023/04/07 03:14:28;;;;;;;1.40;1.30;;;18.70;41.80;;;;;;5021107;28;20218;-64
2023/04/07 03:16:55;;;;;;;1.30;1.20;;;18.70;41.70;;;;;;5018424;28;20242;-64
2023/04/07 03:19:20;;;;;;;1.37;1.27;;;18.70;41.70;;;;;;5020188;28;20551;-64
2023/04/07 03:21:46;;;;;;;1.60;1.50;;;18.70;41.70;;;;;;5018766;28;20475;-62
2023/04/07 03:24:11;;;;;;;1.30;1.20;;;18.70;41.70;;;;;;5021606;28;20685;-62
2023/04/07 03:26:37;;;;;;;2.00;1.17;;;18.70;41.70;;;;;;5020170;28;20222;-67
2023/04/07 03:29:03;;;;;;;1.30;1.20;;;18.70;41.80;;;;;;5017617;28;20246;-64
2023/04/07 03:31:29;;;;;;;1.40;1.30;;;18.70;41.70;;;;;;5020811;28;20686;-63
2023/04/07 03:33:54;;;;;;;1.30;1.20;;;18.70;41.70;;;;;;5019686;28;21132;-62
2023/04/07 03:36:20;;;;;;;1.20;1.10;;;18.60;41.70;;;;;;5017564;28;20434;-65
2023/04/07 03:38:46;;;;;;;1.30;1.20;;;18.70;41.80;;;;;;5022173;28;20222;-66
2023/04/07 03:41:12;;;;;;;1.10;1.00;;;18.60;41.70;;;;;;5020816;28;20243;-64
2023/04/07 03:43:37;;;;;;;1.40;1.30;;;18.60;41.70;;;;;;5019478;28;20465;-66
2023/04/07 03:46:03;;;;;;;1.13;1.03;;;18.70;41.70;;;;;;5020981;28;20223;-65
2023/04/07 03:48:29;;;;;;;1.20;1.10;;;18.60;41.60;;;;;;5017856;28;20683;-64
2023/04/07 03:50:55;;;;;;;1.30;1.20;;;18.60;41.70;;;;;;5020322;28;20259;-62
2023/04/07 03:53:20;;;;;;;1.30;1.20;;;18.70;41.70;;;;;;5017992;28;20254;-64
2023/04/07 03:55:47;;;;;;;1.27;1.17;;;18.70;41.70;;;;;;5017324;28;20215;-63
2023/04/07 03:58:13;;;;;;;1.30;1.20;;;18.70;41.70;;;;;;5019764;28;20222;-64
2023/04/07 04:00:38;;;;;;;1.47;1.37;;;18.70;41.80;;;;;;5018314;28;20851;-67
2023/04/07 04:03:04;;;;;;;1.10;1.00;;;18.70;41.70;;;;;;5020346;28;20231;-64
2023/04/07 04:05:30;;;;;;;1.27;1.17;;;18.60;41.70;;;;;;5016730;28;20226;-64
2023/04/07 04:07:56;;;;;;;1.40;1.30;;;18.60;41.70;;;;;;5012597;28;20300;-63
2023/04/07 04:10:22;;;;;;;1.33;1.23;;;18.60;41.70;;;;;;5016363;28;20230;-63
2023/04/07 04:12:48;;;;;;;1.10;1.00;;;18.60;41.70;;;;;;5022033;28;20433;-63
2023/04/07 04:15:14;;;;;;;1.40;1.30;;;18.70;41.80;;;;;;5022417;28;20218;-67
2023/04/07 04:17:40;;;;;;;1.20;1.10;;;18.60;41.70;;;;;;5018435;28;20461;-68
2023/04/07 04:20:06;;;;;;;1.30;1.20;;;18.60;41.70;;;;;;5018339;28;20487;-64
2023/04/07 04:22:32;;;;;;;1.47;1.10;;;18.60;41.70;;;;;;5016344;28;20609;-64
2023/04/07 04:24:58;;;;;;;1.10;1.00;;;18.60;41.60;;;;;;5013685;28;20426;-64
2023/04/07 04:27:23;;;;;;;1.37;1.27;;;18.60;41.70;;;;;;5012952;28;20226;-65
2023/04/07 04:29:49;;;;;;;1.30;1.20;;;18.60;41.70;;;;;;5012671;28;20502;-63
2023/04/07 04:32:16;;;;;;;1.10;1.00;;;18.60;41.70;;;;;;5014461;28;20227;-68
2023/04/07 04:34:42;;;;;;;1.10;1.00;;;18.60;41.70;;;;;;5013297;28;20250;-62
2023/04/07 04:37:08;;;;;;;1.10;1.00;;;18.60;41.70;;;;;;5014309;28;20835;-62
2023/04/07 04:39:33;;;;;;;1.30;1.10;;;18.60;41.70;;;;;;5013735;28;20215;-70
2023/04/07 04:42:00;;;;;;;1.00;1.00;;;18.60;41.70;;;;;;5020238;28;20235;-64
2023/04/07 04:44:25;;;;;;;1.17;1.07;;;18.60;41.70;;;;;;5019196;28;20220;-64
2023/04/07 04:46:51;;;;;;;1.20;0.90;;;18.70;41.70;;;;;;5015484;28;20789;-64
2023/04/07 04:49:17;;;;;;;1.03;1.03;;;18.60;41.70;;;;;;5014974;28;20218;-62
2023/04/07 04:51:43;;;;;;;1.30;1.20;;;18.70;41.70;;;;;;5016465;28;20334;-62
2023/04/07 04:54:09;;;;;;;1.43;1.00;;;18.60;41.60;;;;;;5024246;28;20462;-62
2023/04/07 04:56:35;;;;;;;1.00;1.00;;;18.70;41.70;;;;;;5023181;28;21135;-63
2023/04/07 04:59:02;;;;;;;1.10;1.10;;;18.70;41.70;;;;;;5024437;28;20245;-63
2023/04/07 05:01:27;;;;;;;1.30;1.20;;;18.70;41.70;;;;;;5022609;28;20227;-65
2023/04/07 05:03:53;;;;;;;1.33;1.23;;;18.70;41.70;;;;;;5022662;28;20458;-64
2023/04/07 05:06:18;;;;;;;1.10;1.00;;;18.70;41.70;;;;;;5020923;28;20227;-64
2023/04/07 05:08:44;;;;;;;1.10;1.00;;;18.70;41.70;;;;;;5021100;28;20305;-64
2023/04/07 05:11:10;;;;;;;0.90;0.90;;;18.70;41.70;;;;;;5021380;28;20238;-62
2023/04/07 05:13:36;;;;;;;1.20;1.10;;;18.70;41.70;;;;;;5024229;28;20254;-63
2023/04/07 05:16:01;;;;;;;1.10;1.00;;;18.70;41.70;;;;;;5020817;28;20529;-62
2023/04/07 05:18:27;;;;;;;1.20;1.10;;;18.70;41.60;;;;;;5023617;28;20675;-64
2023/04/07 05:20:52;;;;;;;1.10;1.00;;;18.70;41.60;;;;;;5017911;28;20222;-65
2023/04/07 05:23:18;;;;;;;1.20;1.10;;;18.70;41.60;;;;;;5018704;28;20289;-64
2023/04/07 05:25:43;;;;;;;1.37;1.00;;;18.70;41.60;;;;;;5021814;28;20222;-62
2023/04/07 05:28:09;;;;;;;1.20;1.10;;;18.70;41.70;;;;;;5019082;28;20294;-62
2023/04/07 05:30:34;;;;;;;1.30;1.00;;;18.70;41.70;;;;;;5024225;28;20334;-63
2023/04/07 05:33:00;;;;;;;0.80;0.80;;;18.70;41.70;;;;;;5021570;28;20253;-62
2023/04/07 05:35:25;;;;;;;1.10;1.00;;;18.70;41.60;;;;;;5020467;28;20226;-67
2023/04/07 05:37:51;;;;;;;2.13;1.20;;;18.70;41.60;;;;;;5015160;28;20218;-66
2023/04/07 05:40:17;;;;;;;1.10;0.90;;;18.70;41.70;;;;;;5019019;28;20226;-62
2023/04/07 05:42:42;;;;;;;1.43;1.00;;;18.70;41.60;;;;;;5018863;28;20235;-61
2023/04/07 05:45:09;;;;;;;1.17;1.07;;;18.70;41.60;;;;;;5019958;28;20225;-63
2023/04/07 05:47:35;;;;;;;1.00;0.90;;;18.70;41.60;;;;;;5021383;28;20239;-63
2023/04/07 05:50:00;;;;;;;1.10;1.00;;;18.70;41.60;;;;;;5021563;28;20430;-62
2023/04/07 05:52:26;;;;;;;1.17;0.87;;;18.70;41.60;;;;;;5017053;28;20238;-63
2023/04/07 05:54:52;;;;;;;4.93;1.03;;;18.70;41.70;;;;;;5019144;28;20215;-65
2023/04/07 05:57:17;;;;;;;0.87;0.87;;;18.70;41.70;;;;;;5018439;28;20230;-64
2023/04/07 05:59:43;;;;;;;1.23;0.80;;;18.70;41.60;;;;;;5014282;28;20223;-62
2023/04/07 06:02:08;;;;;;;1.30;1.20;;;18.70;41.60;;;;;;5017215;28;20249;-63
2023/04/07 06:04:34;;;;;;;1.17;1.10;;;18.70;41.70;;;;;;5016814;28;20239;-63
2023/04/07 06:07:01;;;;;;;0.90;0.90;;;18.70;41.60;;;;;;5014523;28;20620;-63
2023/04/07 06:09:27;;;;;;;1.33;1.23;;;18.70;41.60;;;;;;5011082;28;20222;-65
2023/04/07 06:11:52;;;;;;;0.90;0.90;;;18.70;41.60;;;;;;5007914;28;20431;-66
2023/04/07 06:14:18;;;;;;;0.97;0.97;;;18.70;41.60;;;;;;5012635;28;20222;-64
2023/04/07 06:16:43;;;;;;;0.80;0.80;;;18.70;41.60;;;;;;5010886;28;20266;-63
2023/04/07 06:19:09;;;;;;;1.23;1.13;;;18.70;41.60;;;;;;5015780;28;20234;-63
2023/04/07 06:21:35;;;;;;;1.20;1.10;;;18.70;41.70;;;;;;5011109;28;20242;-64
2023/04/07 06:24:00;;;;;;;0.80;0.80;;;18.70;41.60;;;;;;5012396;28;20231;-63
2023/04/07 06:26:26;;;;;;;0.90;0.90;;;18.70;41.60;;;;;;5013941;28;20769;-65
2023/04/07 06:28:52;;;;;;;1.00;0.83;;;18.70;41.60;;;;;;5008615;28;20215;-63
2023/04/07 06:31:17;;;;;;;0.90;0.90;;;18.70;41.60;;;;;;5013741;28;20227;-62
2023/04/07 06:33:43;;;;;;;1.00;0.90;;;18.70;41.60;;;;;;5011005;28;20696;-63
2023/04/07 06:36:10;;;;;;;1.03;0.93;;;18.70;41.60;;;;;;5015068;28;20231;-67
2023/04/07 06:38:35;;;;;;;0.80;0.80;;;18.70;41.60;;;;;;5011058;28;20439;-65
2023/04/07 06:41:01;;;;;;;2.83;0.97;;;18.70;41.60;;;;;;5005667;28;20816;-68
2023/04/07 06:43:27;;;;;;;2.03;1.00;;;18.70;41.60;;;;;;5010974;28;20330;-62
2023/04/07 06:45:52;;;;;;;0.93;0.87;;;18.70;41.60;;;;;;5006195;28;20697;-65
2023/04/07 06:48:18;;;;;;;1.00;0.90;;;18.70;41.60;;;;;;5009994;28;20300;-66
2023/04/07 06:50:49;;;;;;;0.90;0.90;;;18.70;41.60;;;;;;5004072;28;20234;-62
2023/04/07 06:53:15;;;;;;;0.93;0.93;;;18.70;41.60;;;;;;5004866;28;20230;-69
2023/04/07 06:55:40;;;;;;;1.50;0.90;;;18.70;41.70;;;;;;5011229;28;20941;-61
2023/04/07 06:58:06;;;;;;;0.90;0.90;;;18.70;41.70;;;;;;5014288;28;20489;-62
2023/04/07 07:00:32;;;;;;;1.10;0.80;;;18.70;41.60;;;;;;5015115;28;20313;-62
2023/04/07 07:02:57;;;;;;;0.93;0.77;;;18.70;41.60;;;;;;5027610;28;20322;-65
2023/04/07 07:05:23;;;;;;;0.90;0.90;;;18.70;41.60;;;;;;5015336;28;20234;-68
2023/04/07 07:07:50;;;;;;;0.90;0.90;;;18.70;41.60;;;;;;5011200;28;20313;-66
2023/04/07 07:10:15;;;;;;;1.20;1.10;;;18.70;41.60;;;;;;5014437;28;20226;-65
2023/04/07 07:12:41;;;;;;;0.80;0.80;;;18.70;41.60;;;;;;5012771;28;20487;-64
2023/04/07 07:15:07;;;;;;;1.47;0.80;;;18.70;41.60;;;;;;5011326;28;20272;-65
2023/04/07 07:17:33;;;;;;;1.20;1.10;;;18.70;41.60;;;;;;5008806;28;20223;-61
2023/04/07 07:19:59;;;;;;;0.80;0.80;;;18.70;41.60;;;;;;5006577;28;20667;-64
2023/04/07 07:22:24;;;;;;;0.80;0.80;;;18.70;41.60;;;;;;5015054;28;20626;-64
2023/04/07 07:24:50;;;;;;;1.47;1.03;;;18.70;41.60;;;;;;5012934;28;20268;-64
2023/04/07 07:27:15;;;;;;;1.10;1.00;;;18.70;41.60;;;;;;5012915;28;20233;-62
2023/04/07 07:29:41;;;;;;;0.90;0.90;;;18.70;41.60;;;;;;5018987;28;20241;-62
2023/04/07 07:32:06;;;;;;;1.00;0.90;;;18.70;41.60;;;;;;5014489;28;20260;-62
2023/04/07 07:34:32;;;;;;;0.97;0.97;;;18.70;41.60;;;;;;5016687;28;20219;-62
2023/04/07 07:36:58;;;;;;;0.80;0.80;;;18.70;41.60;;;;;;5011105;28;20318;-66
2023/04/07 07:39:24;;;;;;;1.63;1.00;;;18.70;41.60;;;;;;5013529;28;20222;-63
2023/04/07 07:41:50;;;;;;;0.90;0.90;;;18.70;41.60;;;;;;5008892;28;20446;-65
2023/04/07 07:44:15;;;;;;;1.20;0.83;;;18.70;41.60;;;;;;5014182;28;20478;-64
2023/04/07 07:46:41;;;;;;;1.20;1.10;;;18.70;41.60;;;;;;5013501;28;20309;-61
2023/04/07 07:49:06;;;;;;;1.30;0.87;;;18.70;41.70;;;;;;5007392;28;20218;-64
2023/04/07 07:51:32;;;;;;;1.10;1.00;;;18.70;41.70;;;;;;5011676;28;20274;-61
2023/04/07 07:53:58;;;;;;;1.37;1.00;;;18.70;41.70;;;;;;5005144;28;20226;-65
2023/04/07 07:56:23;;;;;;;1.00;0.90;;;18.70;41.70;;;;;;5007754;28;20242;-64
2023/04/07 07:58:49;;;;;;;1.10;1.00;;;18.70;41.70;;;;;;5009955;28;20682;-66
2023/04/07 08:01:14;;;;;;;0.83;0.80;;;18.70;41.80;;;;;;5013843;28;21103;-65
2023/04/07 08:03:40;;;;;;;1.10;1.00;;;18.70;41.70;;;;;;5014760;28;20231;-62
2023/04/07 08:06:08;;;;;;;1.10;1.00;;;18.70;41.70;;;;;;5012195;28;20224;-63
2023/04/07 08:08:34;;;;;;;2.20;1.13;;;18.70;41.70;;;;;;5018388;28;20227;-61
2023/04/07 08:11:00;;;;;;;0.97;0.90;;;18.70;41.80;;;;;;5015087;28;20435;-68
2023/04/07 08:13:25;;;;;;;1.10;1.00;;;18.70;41.80;;;;;;5016738;28;20437;-62
2023/04/07 08:15:51;;;;;;;1.13;0.90;;;18.70;41.70;;;;;;5016682;28;20287;-62
2023/04/07 08:18:16;;;;;;;7.00;1.10;;;18.70;41.80;;;;;;5022056;28;20232;-65
2023/04/07 08:20:42;;;;;;;0.97;0.90;;;18.70;41.80;;;;;;5017264;28;20225;-69
2023/04/07 08:23:07;;;;;;;1.00;0.90;;;18.70;41.80;;;;;;5013864;28;20720;-61
2023/04/07 08:25:34;;;;;;;1.53;1.00;;;18.70;41.80;;;;;;4995952;28;20215;-62
2023/04/07 08:28:00;;;;;;;3.27;1.10;;;18.70;41.80;;;;;;5011761;28;20690;-61
2023/04/07 08:30:25;;;;;;;2.07;1.20;;;18.70;41.80;;;;;;5017861;28;20453;-62
2023/04/07 08:32:51;;;;;;;1.20;1.03;;;18.70;41.80;;;;;;5017471;28;20225;-63
2023/04/07 08:35:16;;;;;;;1.30;0.90;;;18.70;41.80;;;;;;5023794;28;20317;-63
2023/04/07 08:37:43;;;;;;;1.10;1.00;;;18.70;41.80;;;;;;5018443;28;20253;-62
2023/04/07 08:40:09;;;;;;;1.20;1.10;;;18.70;41.80;;;;;;5017326;28;20776;-68
2023/04/07 08:42:40;;;;;;;1.10;1.00;;;18.70;41.90;;;;;;5011210;28;20568;-69
2023/04/07 08:45:07;;;;;;;1.43;1.10;;;18.70;41.90;;;;;;5015376;28;20468;-64
2023/04/07 08:47:34;;;;;;;0.90;0.80;;;18.70;41.80;;;;;;5013796;28;20586;-65
2023/04/07 08:50:02;;;;;;;1.10;1.00;;;18.70;41.90;;;;;;5012810;28;20431;-64
2023/04/07 08:52:55;;;;;;;1.00;0.90;;;18.70;42.30;;;;;;5020052;28;20452;-63
2023/04/07 08:55:21;;;;;;;1.20;1.00;;;18.70;41.90;;;;;;5014001;28;20448;-65
2023/04/07 08:57:47;;;;;;;1.10;1.00;;;18.60;41.80;;;;;;5022928;28;20917;-63
2023/04/07 09:00:13;;;;;;;7.63;1.40;;;18.70;41.90;;;;;;5022218;28;20250;-65
2023/04/07 09:02:47;;;;;;;1.80;1.00;;;18.70;41.90;;;;;;5021566;28;20552;-64
2023/04/07 09:05:13;;;;;;;1.33;1.23;;;18.70;41.90;;;;;;5021768;28;20431;-64
2023/04/07 09:07:39;;;;;;;1.40;1.20;;;18.60;41.90;;;;;;5022504;28;20454;-64
2023/04/07 09:10:06;;;;;;;1.10;1.00;;;18.60;41.80;;;;;;5021636;28;20998;-63
2023/04/07 09:12:32;;;;;;;1.20;1.10;;;18.60;41.90;;;;;;5020156;28;20724;-63
2023/04/07 09:14:58;;;;;;;1.87;1.10;;;18.60;41.90;;;;;;5019474;28;20469;-62
2023/04/07 09:17:25;;;;;;;1.20;1.10;;;18.60;41.90;;;;;;5018667;28;20436;-65
2023/04/07 09:19:54;;;;;;;1.37;1.27;;;18.60;41.90;;;;;;5018146;28;20309;-65
2023/04/07 09:22:41;;;;;;;1.60;1.50;;;18.60;41.90;;;;;;5017792;28;21091;-65
2023/04/07 09:25:14;;;;;;;1.30;1.20;;;18.60;42.00;;;;;;5019483;28;20419;-62
2023/04/07 09:27:40;;;;;;;1.30;1.20;;;18.60;41.90;;;;;;5020443;28;20431;-64
2023/04/07 09:30:16;;;;;;;1.30;1.20;;;18.60;41.90;;;;;;5018187;28;20911;-63
2023/04/07 09:32:42;;;;;;;1.50;1.20;;;18.60;42.00;;;;;;5019188;28;20230;-65
2023/04/07 09:35:07;;;;;;;1.23;1.13;;;18.60;42.00;;;;;;5018144;28;21049;-65
2023/04/07 09:37:33;;;;;;;1.37;1.27;;;18.60;42.00;;;;;;5016485;28;20223;-63
2023/04/07 09:40:00;;;;;;;1.60;1.20;;;18.60;42.80;;;;;;5019453;28;20680;-65
2023/04/07 09:42:29;;;;;;;1.40;1.30;;;18.60;42.00;;;;;;5022603;28;20262;-62
2023/04/07 09:44:55;;;;;;;1.30;1.20;;;18.60;42.00;;;;;;5017736;28;20425;-68
2023/04/07 09:47:27;;;;;;;1.20;1.10;;;18.60;42.00;;;;;;5021312;28;20438;-64
2023/04/07 09:49:54;;;;;;;1.20;1.10;;;18.60;42.00;;;;;;5010106;28;20242;-65
2023/04/07 09:52:50;;;;;;;2.07;1.23;;;18.60;42.00;;;;;;5017346;28;20484;-64
2023/04/07 09:55:17;;;;;;;1.47;1.10;;;18.60;42.00;;;;;;5018036;28;20456;-63
2023/04/07 09:57:44;;;;;;;1.10;1.00;;;18.60;42.00;;;;;;5016708;28;20559;-63
2023/04/07 10:00:10;;;;;;;1.40;1.10;;;18.60;42.00;;;;;;5018045;28;20657;-63
2023/04/07 10:02:36;;;;;;;1.10;1.00;;;18.60;42.10;;;;;;5018352;28;21054;-64
2023/04/07 10:05:03;;;;;;;1.73;1.40;;;18.60;42.10;;;;;;5018272;28;20957;-64
2023/04/07 10:07:28;;;;;;;1.33;1.20;;;18.60;42.00;;;;;;5022400;28;20558;-62
2023/04/07 10:09:54;;;;;;;1.50;1.40;;;18.60;42.10;;;;;;5017575;28;20528;-64
2023/04/07 10:12:20;;;;;;;1.20;1.10;;;18.60;42.00;;;;;;5021109;28;20227;-64
2023/04/07 10:14:46;;;;;;;1.30;1.10;;;18.60;42.10;;;;;;5023788;28;20250;-64
2023/04/07 10:17:17;;;;;;;1.50;1.30;;;18.60;42.00;;;;;;5019909;28;20554;-65
2023/04/07 10:19:44;;;;;;;1.43;1.33;;;18.60;42.10;;;;;;5022741;28;20652;-66
2023/04/07 10:22:10;;;;;;;1.10;1.00;;;18.60;42.10;;;;;;5018661;28;20522;-63
2023/04/07 10:24:50;;;;;;;1.33;1.17;;;18.60;42.10;;;;;;5019045;28;20465;-63
2023/04/07 10:27:20;;;;;;;4.67;1.13;;;18.60;42.10;;;;;;5019185;28;20467;-64
2023/04/07 10:29:50;;;;;;;2.50;1.37;;;18.60;42.10;;;;;;5021315;28;20453;-65
2023/04/07 10:32:16;;;;;;;1.73;1.63;;;18.60;42.10;;;;;;5010705;28;20934;-63
2023/04/07 10:34:53;;;;;;;1.57;1.27;;;18.60;42.10;;;;;;5021296;28;20443;-65
2023/04/07 10:37:21;;;;;;;1.23;1.13;;;18.60;42.10;;;;;;5014566;28;20226;-68
2023/04/07 10:40:18;;;;;;;1.30;1.20;;;18.60;42.10;;;;;;5021445;28;20411;-63
2023/04/07 10:42:46;;;;;;;1.20;1.10;;;18.60;42.00;;;;;;5018258;28;21049;-66
2023/04/07 10:45:12;;;;;;;1.10;1.00;;;18.60;42.10;;;;;;5009881;28;20420;-65
2023/04/07 10:48:11;;;;;;;1.40;1.20;;;18.60;42.10;;;;;;5018585;28;20435;-63
2023/04/07 10:50:37;;;;;;;1.40;1.30;;;18.60;42.10;;;;;;5016121;28;21045;-63
2023/04/07 10:53:07;;;;;;;1.30;1.20;;;18.60;42.20;;;;;;5020381;28;20466;-63
2023/04/07 10:55:32;;;;;;;1.50;1.40;;;18.60;42.10;;;;;;5025721;28;20445;-63
2023/04/07 10:58:30;;;;;;;1.50;1.40;;;18.60;42.10;;;;;;5017224;28;20838;-66
2023/04/07 11:00:56;;;;;;;1.20;1.10;;;18.60;42.10;;;;;;5015116;28;21116;-64
2023/04/07 11:03:25;;;;;;;1.40;1.20;;;18.60;42.10;;;;;;5015422;28;20468;-65
2023/04/07 11:05:51;;;;;;;1.50;1.40;;;18.60;42.10;;;;;;5017208;28;20306;-62
2023/04/07 11:08:33;;;;;;;1.30;1.20;;;18.60;42.20;;;;;;5019014;28;20444;-64
2023/04/07 11:10:59;;;;;;;1.33;1.23;;;18.60;42.10;;;;;;5015727;28;20237;-65
2023/04/07 11:13:26;;;;;;;1.40;1.30;;;18.60;42.10;;;;;;5020120;28;20440;-63
2023/04/07 11:15:51;;;;;;;1.63;1.40;;;18.60;42.10;;;;;;5020535;28;20239;-62
2023/04/07 11:18:19;;;;;;;1.33;1.23;;;18.60;42.10;;;;;;5018033;28;20461;-67
2023/04/07 11:20:45;;;;;;;1.30;1.20;;;18.60;42.20;;;;;;5014205;28;20223;-65
2023/04/07 11:23:12;;;;;;;1.57;1.47;;;18.60;42.10;;;;;;5020700;28;20546;-63
2023/04/07 11:25:38;;;;;;;1.40;1.30;;;18.60;42.10;;;;;;5016994;28;20440;-64
2023/04/07 11:28:04;;;;;;;1.27;1.17;;;18.60;42.10;;;;;;5018679;28;20978;-65
2023/04/07 11:30:29;;;;;;;1.47;1.37;;;18.60;42.10;;;;;;5017850;28;20214;-66
2023/04/07 11:32:55;;;;;;;1.20;1.10;;;18.60;42.10;;;;;;5018187;28;20430;-66
2023/04/07 11:35:22;;;;;;;1.40;1.30;;;18.60;42.10;;;;;;5018266;28;20233;-65
2023/04/07 11:37:47;;;;;;;1.30;1.20;;;18.60;42.10;;;;;;5018911;28;20480;-63
2023/04/07 11:40:33;;;;;;;1.37;1.27;;;18.70;42.20;;;;;;5016054;28;20807;-63
2023/04/07 11:42:58;;;;;;;1.50;1.40;;;18.60;42.10;;;;;;5015729;28;20251;-64
2023/04/07 11:45:24;;;;;;;1.37;1.27;;;18.60;42.10;;;;;;5009285;28;20976;-64
2023/04/07 11:47:49;;;;;;;1.40;1.30;;;18.60;42.10;;;;;;5017841;28;20219;-69
2023/04/07 11:50:15;;;;;;;1.33;1.23;;;18.60;42.10;;;;;;5014547;28;20222;-66
2023/04/07 11:52:46;;;;;;;1.63;1.53;;;18.60;42.90;;;;;;5010764;28;20223;-65
2023/04/07 11:55:20;;;;;;;1.10;1.00;;;18.60;42.10;;;;;;5014066;28;20225;-64
2023/04/07 11:57:46;;;;;;;1.30;1.20;;;18.60;42.10;;;;;;5018021;28;20434;-63
2023/04/07 12:00:13;;;;;;;1.37;1.27;;;18.60;42.10;;;;;;5013546;28;20495;-62
2023/04/07 12:02:39;;;;;;;1.37;1.27;;;18.60;42.10;;;;;;5018725;28;20493;-63
2023/04/07 12:05:05;;;;;;;1.93;1.57;;;18.60;42.10;;;;;;5019356;28;21006;-64
2023/04/07 12:07:32;;;;;;;1.20;1.10;;;18.60;42.10;;;;;;5009958;28;20794;-64
2023/04/07 12:09:57;;;;;;;1.73;1.63;;;18.60;42.20;;;;;;5017508;28;20509;-67
2023/04/07 12:12:27;;;;;;;1.40;1.30;;;18.70;42.30;;;;;;5015691;28;20464;-65
2023/04/07 12:14:53;;;;;;;1.50;1.40;;;18.60;42.10;;;;;;5022432;28;20245;-65
2023/04/07 12:17:23;;;;;;;1.30;1.20;;;18.60;42.10;;;;;;5014290;28;20486;-64
2023/04/07 12:19:49;;;;;;;1.40;1.30;;;18.60;42.20;;;;;;5014021;28;20565;-65
2023/04/07 12:22:15;;;;;;;1.50;1.40;;;18.60;42.20;;;;;;5016693;28;20935;-62
2023/04/07 12:24:40;;;;;;;1.10;1.00;;;18.60;42.20;;;;;;5015025;28;20230;-63
2023/04/07 12:27:06;;;;;;;1.33;1.23;;;18.60;42.20;;;;;;5014203;28;20230;-64
2023/04/07 12:29:33;;;;;;;1.23;1.13;;;18.60;42.20;;;;;;5017136;28;20230;-63
2023/04/07 12:31:59;;;;;;;1.43;1.33;;;18.60;42.20;;;;;;5016995;28;20223;-66
2023/04/07 12:34:26;;;;;;;4.30;1.70;;;18.60;42.20;;;;;;5016792;28;20439;-63
2023/04/07 12:36:51;;;;;;;1.30;1.20;;;18.60;42.20;;;;;;5015740;28;20455;-62
2023/04/07 12:39:17;;;;;;;1.30;1.20;;;18.60;42.20;;;;;;5013494;28;20448;-63
2023/04/07 12:41:44;;;;;;;1.40;1.30;;;18.60;42.20;;;;;;5015695;28;20238;-64
2023/04/07 12:44:10;;;;;;;1.33;1.23;;;18.60;42.20;;;;;;5013560;28;20268;-62
2023/04/07 12:46:36;;;;;;;1.33;1.23;;;18.60;42.20;;;;;;5030963;28;20912;-63
2023/04/07 12:49:02;;;;;;;1.53;1.43;;;18.60;42.20;;;;;;5029751;28;20478;-66